Concord, NH

2:29 AM EDT on August 26, 2016 (GMT -0400)
HADS | | Change Station

Elev 304 ft 43.21 °N, 71.48 °W | Updated 59 minutes ago

Overcast
Overcast
69.0 °F
Feels Like 69.0 °F
N
0.0
Wind Variable Wind from North
Gusts 0.0 mph

Today
High -- | Low -- °F
--% Chance of Precip.
Yesterday
High -- | Low -- °F
Precip. -- in
Pressure 29.94 in
Visibility 10.0 miles
Clouds Overcast 8500 ft
Dew Point Not available.
Humidity Not available.
Rainfall in
Snow Depth Not available.
6:04 AM 7:30 PM
Last Quarter, 37% visible
METAR KCON 260551Z AUTO 18003KT 10SM OVC085 22/19 A2994 RMK AO2 SLP136 60000 T02170194 10239 20211 56009
Pressure 29.94 in
Visibility 10.0 miles
Clouds Overcast 8500 ft
Dew Point Not available.
Humidity Not available.
Rainfall in
Snow Depth Not available.
6:04 AM 7:30 PM
Last Quarter, 37% visible
METAR KCON 260551Z AUTO 18003KT 10SM OVC085 22/19 A2994 RMK AO2 SLP136 60000 T02170194 10239 20211 56009

10-Day Weather Forecast

Almanac

Astronomy

Aug. 26, 2016 Rise Set
Actual Time
Civil Twilight
Nautical Twilight
Astronomical Twilight
Moon
Length of Visible Light
Length of Day
Tomorrow will be .
, % of the Moon is Illuminated

Today's Extremes

State Highs State Lows

Community

WunderPhotos

Upload Photos

1,935,058 photos uploaded!

WunderBlog® & News

Nearby

Air Quality

  Air Quality AQ Index Pollutant
Not available.

Snow Depth

Station Depth Elevation

Earthquake Activity

City Distance Mag. Time & Date
Minimum magnitude displayed is 2.5.

Coastal Water Temperatures

Place Temperature

Stations

Nearby Weather Stations

Station Location Temp. Windchill Dew Point Humidity Wind Precip. Elev Updated Type
                   

Watches & Warnings

There are currently no watches in effect.